Time;durP1;ratioP1;P1;durP2;ratioP2;P2;SDS_P1;SDS_P2;PMS_P1;PMS_P2;Temp;Humidity;BMP_temperature;BMP_pressure;BME280_temperature;BME280_humidity;BME280_pressure;Samples;Min_cycle;Max_cycle;Signal;HPM_P1;HPM_P2
2023/06/16 00:01:59;;;;;;;19.40;13.57;;;;;;;21.61;85.43;100275.22;5095826;28;20044;-88
2023/06/16 00:04:27;;;;;;;22.92;14.18;;;;;;;21.60;84.85;100282.59;5096057;28;20545;-84
2023/06/16 00:06:58;;;;;;;24.05;13.95;;;;;;;21.50;84.45;100264.84;5096966;28;20427;-87
2023/06/16 00:09:25;;;;;;;21.55;12.90;;;;;;;21.53;84.14;100268.03;5097341;28;20487;-87
2023/06/16 00:11:51;;;;;;;25.33;13.70;;;;;;;21.46;84.16;100266.31;5097196;28;20032;-87
2023/06/16 00:14:16;;;;;;;16.83;12.63;;;;;;;21.41;84.25;100266.91;5097015;28;20028;-86
2023/06/16 00:16:43;;;;;;;20.00;13.02;;;;;;;21.38;84.55;100266.47;5096781;28;20035;-87
2023/06/16 00:19:09;;;;;;;17.45;12.63;;;;;;;21.26;84.69;100249.81;5096245;28;20085;-86
2023/06/16 00:21:38;;;;;;;21.67;15.38;;;;;;;21.34;85.34;100263.34;5097550;28;20035;-87
2023/06/16 00:24:08;;;;;;;21.70;14.85;;;;;;;21.31;85.82;100269.22;5096089;28;20032;-87
2023/06/16 00:26:34;;;;;;;21.20;13.05;;;;;;;21.26;86.49;100252.53;5097605;28;20530;-87
2023/06/16 00:29:02;;;;;;;34.83;15.88;;;;;;;21.28;86.84;100252.34;5097088;28;20115;-87
2023/06/16 00:31:27;;;;;;;28.10;15.32;;;;;;;21.20;87.30;100245.16;5097645;28;20055;-87
2023/06/16 00:33:53;;;;;;;22.55;14.98;;;;;;;21.17;87.67;100242.81;5098251;28;20028;-86
2023/06/16 00:36:19;;;;;;;24.25;14.65;;;;;;;21.19;87.71;100253.56;5097786;28;20024;-86
2023/06/16 00:38:45;;;;;;;27.67;14.52;;;;;;;21.09;87.90;100248.47;5098622;28;20034;-86
2023/06/16 00:41:11;;;;;;;35.70;14.85;;;;;;;21.10;87.86;100239.19;5103943;28;20032;-87
2023/06/16 00:43:36;;;;;;;21.08;15.43;;;;;;;21.13;87.82;100244.25;5113341;28;20032;-87
2023/06/16 00:46:02;;;;;;;24.13;15.45;;;;;;;21.12;88.02;100242.59;5108948;28;20036;-85
2023/06/16 00:48:27;;;;;;;31.67;15.13;;;;;;;21.19;88.36;100243.47;5095199;28;20044;-85
2023/06/16 00:50:55;;;;;;;23.48;15.77;;;;;;;21.26;88.26;100260.75;5095794;28;20032;-87
2023/06/16 00:53:21;;;;;;;21.83;15.70;;;;;;;21.29;88.29;100265.81;5095603;28;20054;-87
2023/06/16 00:55:47;;;;;;;21.88;14.82;;;;;;;21.23;88.19;100250.22;5093295;28;20061;-86
2023/06/16 00:58:13;;;;;;;22.67;15.15;;;;;;;21.25;87.58;100259.06;5095810;28;20028;-87
2023/06/16 01:00:38;;;;;;;20.48;15.05;;;;;;;21.24;87.77;100257.38;5094961;28;20052;-84
2023/06/16 01:03:04;;;;;;;18.08;14.50;;;;;;;21.11;87.52;100251.84;5095321;28;20024;-84
2023/06/16 01:05:32;;;;;;;25.80;15.13;;;;;;;21.16;87.13;100255.63;5094864;28;20158;-84
2023/06/16 01:08:15;;;;;;;23.60;15.90;;;;;;;21.13;86.95;100257.94;5079802;28;20028;-83
2023/06/16 01:11:08;;;;;;;24.98;16.52;;;;;;;21.12;87.32;100250.78;5074265;28;20028;-85
2023/06/16 01:14:01;;;;;;;25.70;17.73;;;;;;;21.13;87.50;100249.72;5072974;28;20032;-86
2023/06/16 01:16:31;;;;;;;;;;;;;;;21.12;87.63;100239.84;5076363;28;20024;-86
2023/06/16 01:18:58;;;;;;;29.73;17.02;;;;;;;20.98;87.42;100230.69;5076202;28;20370;-86
2023/06/16 01:21:39;;;;;;;21.50;15.63;;;;;;;21.03;87.47;100243.75;5077761;28;20033;-86
2023/06/16 01:24:24;;;;;;;25.65;17.25;;;;;;;20.85;87.03;100218.84;5097099;28;20032;-87
2023/06/16 01:26:53;;;;;;;25.40;16.58;;;;;;;20.95;86.82;100224.78;5097255;28;20020;-85
2023/06/16 01:29:25;;;;;;;26.83;15.70;;;;;;;20.97;86.92;100236.38;5096479;28;20123;-85
2023/06/16 01:31:57;;;;;;;26.60;16.02;;;;;;;20.86;87.11;100225.97;5098487;28;20097;-85
2023/06/16 01:34:25;;;;;;;18.05;14.10;;;;;;;20.91;87.36;100242.66;5098963;28;20088;-87
2023/06/16 01:36:52;;;;;;;33.05;16.50;;;;;;;20.95;87.19;100252.13;5098286;28;20027;-85
2023/06/16 01:39:20;;;;;;;23.48;16.10;;;;;;;20.82;87.41;100235.66;5113734;28;20031;-88
2023/06/16 01:41:47;;;;;;;27.45;16.33;;;;;;;20.81;87.47;100234.81;5110253;28;20028;-86
2023/06/16 01:44:13;;;;;;;32.85;15.73;;;;;;;20.68;87.77;100217.44;5096469;28;20055;-87
2023/06/16 01:46:39;;;;;;;39.00;17.05;;;;;;;20.70;87.44;100226.31;5096607;28;20039;-86
2023/06/16 01:49:05;;;;;;;23.85;16.15;;;;;;;20.64;87.70;100215.13;5096529;28;20020;-86
2023/06/16 01:51:30;;;;;;;26.90;16.20;;;;;;;20.65;87.79;100229.63;5097016;28;20119;-86
2023/06/16 01:53:56;;;;;;;34.22;16.45;;;;;;;20.64;88.11;100234.25;5098402;28;20373;-84
2023/06/16 01:56:22;;;;;;;32.75;15.75;;;;;;;20.64;88.36;100231.50;5102228;28;20031;-84
2023/06/16 01:58:48;;;;;;;26.35;15.68;;;;;;;20.72;88.73;100246.09;5113306;28;20016;-90
2023/06/16 02:01:20;;;;;;;38.80;16.73;;;;;;;20.64;88.92;100236.97;5117234;28;20036;-87
2023/06/16 02:03:52;;;;;;;20.33;16.20;;;;;;;20.62;89.40;100247.28;5113421;28;20023;-86
2023/06/16 02:06:24;;;;;;;25.15;15.63;;;;;;;20.55;89.40;100246.38;5097982;28;20054;-84
2023/06/16 02:08:53;;;;;;;26.90;17.80;;;;;;;20.51;89.25;100236.91;5097085;28;20028;-86
2023/06/16 02:11:19;;;;;;;30.67;16.70;;;;;;;20.53;88.66;100237.53;5095610;28;20091;-84
2023/06/16 02:13:45;;;;;;;24.80;15.68;;;;;;;20.59;88.74;100258.59;5096072;28;20467;-85
2023/06/16 02:16:11;;;;;;;30.77;17.02;;;;;;;20.56;88.76;100237.16;5100327;28;20035;-90
2023/06/16 02:18:37;;;;;;;26.10;16.60;;;;;;;20.63;88.58;100262.63;5096467;28;20024;-87
2023/06/16 02:21:02;;;;;;;31.42;15.73;;;;;;;20.57;88.54;100232.53;5098039;28;20059;-85
2023/06/16 02:23:28;;;;;;;29.27;16.98;;;;;;;20.52;88.12;100229.53;5106109;28;20028;-84
2023/06/16 02:25:53;;;;;;;33.38;16.17;;;;;;;20.52;87.87;100233.09;5102141;28;20095;-85
2023/06/16 02:28:19;;;;;;;27.42;16.35;;;;;;;20.57;87.71;100238.84;5097333;28;20051;-85
2023/06/16 02:30:45;;;;;;;27.85;15.38;;;;;;;20.62;87.84;100258.22;5098142;28;20081;-85
2023/06/16 02:33:12;;;;;;;23.50;15.60;;;;;;;20.58;87.90;100239.66;5096862;28;20020;-84
2023/06/16 02:35:38;;;;;;;37.35;16.83;;;;;;;20.59;87.68;100242.22;5110885;28;20020;-87
2023/06/16 02:38:04;;;;;;;56.25;19.00;;;;;;;20.58;87.14;100239.66;5109186;28;20058;-81
2023/06/16 02:40:30;;;;;;;41.33;17.30;;;;;;;20.58;87.43;100243.25;5074454;28;20335;-83
2023/06/16 02:42:55;;;;;;;31.60;17.60;;;;;;;20.52;87.32;100237.72;5093321;28;20055;-85
2023/06/16 02:45:21;;;;;;;25.65;15.95;;;;;;;20.50;87.25;100232.47;5087570;28;20024;-84
2023/06/16 02:47:46;;;;;;;25.88;16.38;;;;;;;20.49;87.50;100224.47;5071871;28;20443;-84
2023/06/16 02:50:12;;;;;;;39.85;16.92;;;;;;;20.34;87.99;100199.97;5073410;28;20024;-86
2023/06/16 02:52:41;;;;;;;31.35;17.35;;;;;;;20.53;88.93;100229.34;5074105;28;20047;-82
2023/06/16 02:55:08;;;;;;;34.88;16.15;;;;;;;20.41;89.21;100208.22;5075789;28;20036;-88
2023/06/16 02:57:34;;;;;;;29.13;18.58;;;;;;;20.46;89.71;100209.31;5080977;28;20028;-87
2023/06/16 03:00:00;;;;;;;33.78;18.55;;;;;;;20.54;90.03;100220.13;5074944;28;20032;-89
2023/06/16 03:02:25;;;;;;;23.33;16.42;;;;;;;20.57;90.61;100216.97;5077183;28;20083;-86
2023/06/16 03:04:51;;;;;;;23.77;15.45;;;;;;;20.69;90.95;100224.63;5076252;28;20025;-88
2023/06/16 03:07:17;;;;;;;23.48;16.10;;;;;;;20.77;91.34;100235.38;5076589;28;20472;-88
2023/06/16 03:09:43;;;;;;;28.85;17.58;;;;;;;20.82;91.71;100224.72;5077782;28;20032;-83
2023/06/16 03:12:09;;;;;;;31.60;17.38;;;;;;;20.86;91.38;100231.44;5083254;28;20025;-94
2023/06/16 03:17:20;;;;;;;35.25;16.00;;;;;;;20.92;90.96;100216.97;5039700;22;20067;-90
2023/06/16 03:19:47;;;;;;;24.58;15.40;;;;;;;21.02;90.46;100223.78;5017493;28;20037;-87
2023/06/16 03:22:13;;;;;;;30.10;16.10;;;;;;;21.26;90.16;100240.75;5037374;28;20033;-82
2023/06/16 03:24:41;;;;;;;23.15;15.35;;;;;;;21.26;89.80;100238.84;5034529;28;20030;-81
2023/06/16 03:27:08;;;;;;;46.45;22.17;;;;;;;21.29;89.24;100224.78;5032875;28;20099;-81
2023/06/16 03:29:34;;;;;;;36.90;17.13;;;;;;;21.31;88.50;100219.97;5032955;28;20025;-82
2023/06/16 03:32:00;;;;;;;47.83;15.50;;;;;;;21.45;87.83;100243.59;5036383;28;20113;-82
2023/06/16 03:34:26;;;;;;;29.60;16.77;;;;;;;21.38;87.28;100220.81;5037637;28;20038;-81
2023/06/16 03:36:52;;;;;;;30.67;15.98;;;;;;;21.44;87.26;100228.22;5032361;28;20038;-81
2023/06/16 03:39:17;;;;;;;29.63;15.63;;;;;;;21.54;87.15;100225.94;5030875;28;20025;-81
2023/06/16 03:41:43;;;;;;;41.00;15.05;;;;;;;21.58;86.63;100216.28;5032575;28;20040;-82
2023/06/16 03:44:09;;;;;;;37.08;16.23;;;;;;;21.70;86.38;100231.03;5031840;28;20033;-83
2023/06/16 03:46:34;;;;;;;49.15;16.00;;;;;;;21.54;86.21;100195.84;5030192;28;20033;-81
2023/06/16 03:49:00;;;;;;;48.72;15.95;;;;;;;21.78;86.16;100220.94;5030048;28;20030;-80
2023/06/16 03:51:26;;;;;;;52.00;17.67;;;;;;;21.88;85.85;100224.13;5028653;28;20029;-81
2023/06/16 03:53:51;;;;;;;51.30;16.30;;;;;;;21.96;85.50;100218.47;5029883;28;20060;-81
2023/06/16 03:56:20;;;;;;;46.67;17.77;;;;;;;21.99;85.61;100213.44;5033116;28;20412;-88
2023/06/16 03:58:48;;;;;;;45.80;17.50;;;;;;;21.99;85.50;100210.69;5036911;28;20109;-88
2023/06/16 04:01:14;;;;;;;32.80;15.10;;;;;;;22.14;85.34;100210.50;5035758;28;20033;-87
2023/06/16 04:03:39;;;;;;;50.80;15.65;;;;;;;22.18;84.96;100211.75;5037169;28;20025;-88
2023/06/16 04:06:05;;;;;;;40.33;15.38;;;;;;;22.19;85.09;100199.75;5040666;28;20405;-87
2023/06/16 04:08:30;;;;;;;37.38;15.18;;;;;;;22.35;85.19;100224.00;5039499;28;20477;-85
2023/06/16 04:10:58;;;;;;;53.38;19.92;;;;;;;22.36;85.24;100209.22;5032530;28;20041;-93
2023/06/16 04:13:24;;;;;;;48.10;19.20;;;;;;;22.51;84.74;100220.81;5017002;28;20408;-87
2023/06/16 04:15:50;;;;;;;44.50;18.10;;;;;;;22.61;84.53;100207.53;5017237;28;20068;-85
2023/06/16 04:18:15;;;;;;;35.10;16.35;;;;;;;22.76;84.24;100221.03;5038026;28;20029;-84
2023/06/16 04:20:41;;;;;;;58.72;16.98;;;;;;;22.74;84.54;100213.03;5036655;28;20036;-87
2023/06/16 04:23:09;;;;;;;39.65;18.77;;;;;;;22.66;84.95;100205.03;5023063;28;20163;-82
2023/06/16 04:25:35;;;;;;;27.38;15.80;;;;;;;22.61;84.73;100190.25;5023048;28;20033;-83
2023/06/16 04:28:01;;;;;;;27.38;15.45;;;;;;;22.82;85.41;100219.34;5053350;28;20068;-89
2023/06/16 04:30:30;;;;;;;32.83;16.50;;;;;;;22.86;85.19;100201.41;5028915;28;20132;-81
2023/06/16 04:32:58;;;;;;;25.10;14.32;;;;;;;22.84;84.43;100201.63;5043712;28;20028;-83
2023/06/16 04:35:27;;;;;;;36.83;14.50;;;;;;;22.85;83.80;100191.47;5015408;28;20036;-85
2023/06/16 04:37:57;;;;;;;36.38;14.40;;;;;;;22.95;83.55;100194.63;5014910;28;20055;-84
2023/06/16 04:40:23;;;;;;;23.73;12.63;;;;;;;23.11;82.59;100213.38;5031452;28;20025;-86
2023/06/16 04:42:49;;;;;;;26.92;13.95;;;;;;;23.23;81.74;100217.97;5012949;28;20117;-83
2023/06/16 04:45:15;;;;;;;30.30;13.82;;;;;;;23.29;81.28;100206.13;5033531;28;20053;-82
2023/06/16 04:47:42;;;;;;;19.33;13.48;;;;;;;23.25;81.05;100209.50;5033118;28;20677;-82
2023/06/16 04:50:09;;;;;;;19.77;11.68;;;;;;;22.93;80.90;100200.34;5035839;28;20026;-82
2023/06/16 04:52:36;;;;;;;38.70;12.35;;;;;;;22.96;81.76;100199.91;5036067;28;20040;-83
2023/06/16 04:55:02;;;;;;;19.65;11.35;;;;;;;23.16;81.78;100206.16;5031890;28;20117;-83
2023/06/16 04:57:27;;;;;;;29.83;12.38;;;;;;;23.00;82.62;100208.53;5032782;28;20096;-83
2023/06/16 04:59:53;;;;;;;33.50;13.07;;;;;;;23.17;82.38;100205.13;5014242;28;20485;-82
2023/06/16 05:02:18;;;;;;;37.50;13.85;;;;;;;23.17;82.50;100198.78;5031155;28;20063;-84
2023/06/16 05:04:43;;;;;;;32.50;13.65;;;;;;;23.30;81.72;100206.97;5031061;28;20158;-84
2023/06/16 05:07:10;;;;;;;45.25;13.65;;;;;;;23.36;81.13;100200.63;5032039;28;20025;-82
2023/06/16 05:09:37;;;;;;;30.35;13.27;;;;;;;23.43;80.18;100201.44;5013961;28;20029;-84
2023/06/16 05:12:03;;;;;;;30.27;13.32;;;;;;;23.54;80.88;100198.03;5031236;28;20033;-84
2023/06/16 05:14:28;;;;;;;22.33;14.38;;;;;;;23.48;81.16;100187.91;5029637;28;20044;-83
2023/06/16 05:16:53;;;;;;;25.00;13.18;;;;;;;23.47;81.59;100186.22;5030997;28;20080;-82
2023/06/16 05:19:19;;;;;;;30.17;11.30;;;;;;;23.55;81.36;100168.63;5032518;28;20037;-82
2023/06/16 05:21:44;;;;;;;22.58;12.15;;;;;;;23.66;80.73;100178.94;5033247;28;20552;-83
2023/06/16 05:24:10;;;;;;;15.32;11.60;;;;;;;23.70;80.55;100186.50;5035887;28;20186;-84
2023/06/16 05:26:35;;;;;;;48.63;10.65;;;;;;;23.80;78.77;100175.03;5045852;28;20033;-84
2023/06/16 05:29:01;;;;;;;32.10;10.13;;;;;;;23.75;77.19;100175.72;5043185;28;20022;-87
2023/06/16 05:31:26;;;;;;;18.17;10.38;;;;;;;23.90;75.77;100177.28;5030258;28;20425;-82
2023/06/16 05:33:54;;;;;;;33.28;10.88;;;;;;;24.11;75.13;100176.94;5029677;28;20029;-84
2023/06/16 05:36:19;;;;;;;38.20;10.95;;;;;;;24.25;74.40;100165.63;5029577;28;20091;-83
2023/06/16 05:38:45;;;;;;;40.00;10.95;;;;;;;24.40;73.90;100187.28;5030038;28;20470;-83
2023/06/16 05:41:12;;;;;;;26.55;10.65;;;;;;;24.20;74.15;100186.59;5030374;28;20052;-83
2023/06/16 05:43:37;;;;;;;23.60;9.20;;;;;;;24.28;73.88;100184.41;5030329;28;20029;-83
2023/06/16 05:46:02;;;;;;;44.30;15.15;;;;;;;24.13;73.65;100181.16;5031057;28;20029;-82
2023/06/16 05:48:28;;;;;;;22.60;9.32;;;;;;;24.22;72.83;100200.94;5030114;28;20454;-82
2023/06/16 05:50:53;;;;;;;24.38;9.13;;;;;;;;;;5013165;28;20041;-83
2023/06/16 05:53:19;;;;;;;31.50;9.90;;;;;;;24.48;71.90;100206.25;5030932;28;20030;-83
2023/06/16 05:55:44;;;;;;;36.00;9.88;;;;;;;24.47;71.60;100193.56;5030262;28;20302;-85
2023/06/16 05:58:10;;;;;;;24.40;9.50;;;;;;;24.45;70.92;100203.94;5031622;28;20413;-87
2023/06/16 06:00:35;;;;;;;25.05;9.57;;;;;;;;;;5032241;28;20036;-84
2023/06/16 06:03:01;;;;;;;21.08;10.13;;;;;;;24.38;70.96;100219.66;5033562;28;20449;-87
2023/06/16 06:05:26;;;;;;;19.10;9.85;;;;;;;24.33;71.48;100208.50;5018971;28;20374;-92
2023/06/16 06:07:52;;;;;;;22.55;9.88;;;;;;;24.11;72.29;100207.19;5034647;28;20030;-92
2023/06/16 06:10:17;;;;;;;33.38;10.07;;;;;;;24.20;72.89;100223.19;5034230;28;20022;-86
2023/06/16 06:12:43;;;;;;;31.98;10.25;;;;;;;24.17;73.15;100225.53;5017746;28;20210;-88
2023/06/16 06:15:10;;;;;;;37.17;11.60;;;;;;;24.07;73.71;100223.22;5036018;28;20039;-86
2023/06/16 06:17:35;;;;;;;23.92;10.80;;;;;;;24.15;74.38;100231.25;5034489;28;20033;-89
2023/06/16 06:20:01;;;;;;;36.45;10.70;;;;;;;24.22;74.23;100220.19;5014788;28;20370;-80
2023/06/16 06:22:31;;;;;;;24.38;9.77;;;;;;;24.33;74.08;100219.47;5032361;28;20031;-81
2023/06/16 06:24:57;;;;;;;44.28;11.18;;;;;;;24.29;73.69;100210.00;5038005;28;20501;-84
2023/06/16 06:27:22;;;;;;;36.15;11.50;;;;;;;24.34;73.29;100223.94;5028477;28;20108;-83
2023/06/16 06:29:48;;;;;;;34.10;11.15;;;;;;;24.23;72.67;100224.63;5029430;28;20041;-82
2023/06/16 06:32:13;;;;;;;35.17;11.30;;;;;;;24.26;72.91;100236.03;5024862;28;20040;-82
2023/06/16 06:34:39;;;;;;;26.05;10.43;;;;;;;24.28;73.12;100224.78;5011972;28;20045;-80
2023/06/16 06:37:04;;;;;;;28.67;10.35;;;;;;;24.46;73.63;100237.78;5030004;28;20206;-82
2023/06/16 06:39:30;;;;;;;25.23;9.77;;;;;;;24.58;73.33;100225.84;5051489;28;20024;-87
2023/06/16 06:41:56;;;;;;;22.77;9.38;;;;;;;24.67;72.52;100218.97;5051822;28;20028;-90
2023/06/16 06:44:21;;;;;;;36.50;10.65;;;;;;;24.67;71.69;100238.22;5027909;28;20029;-84
2023/06/16 06:46:48;;;;;;;35.53;10.85;;;;;;;24.55;71.35;100195.19;5041996;28;20029;-86
2023/06/16 06:49:14;;;;;;;20.15;8.60;;;;;;;24.71;71.21;100222.09;5040185;28;20466;-85
2023/06/16 06:51:40;;;;;;;28.48;9.23;;;;;;;24.62;71.58;100224.28;5037414;28;20029;-85
2023/06/16 06:54:07;;;;;;;25.65;10.32;;;;;;;24.44;72.09;100196.75;5040462;28;20044;-84
2023/06/16 06:56:32;;;;;;;21.75;9.02;;;;;;;24.63;71.38;100223.22;5038487;28;20037;-86
2023/06/16 06:58:58;;;;;;;21.00;10.40;;;;;;;24.63;71.35;100220.47;5030187;28;20017;-87
2023/06/16 07:01:24;;;;;;;28.67;10.25;;;;;;;24.71;71.32;100233.94;5012525;28;20132;-83
2023/06/16 07:03:49;;;;;;;45.78;10.10;;;;;;;24.75;71.43;100221.44;5030564;28;20049;-84
2023/06/16 07:06:14;;;;;;;64.93;15.60;;;;;;;24.81;71.40;100238.97;5030704;28;20481;-83
2023/06/16 07:08:40;;;;;;;23.38;9.50;;;;;;;24.86;70.77;100241.91;5029126;28;20047;-84
2023/06/16 07:11:06;;;;;;;31.83;9.88;;;;;;;24.79;70.51;100225.41;5032876;28;20481;-85
2023/06/16 07:13:31;;;;;;;23.92;10.07;;;;;;;24.76;71.73;100225.03;5035193;28;20034;-85
2023/06/16 07:15:57;;;;;;;22.63;8.98;;;;;;;24.77;70.92;100227.53;5035385;28;20061;-85
2023/06/16 07:18:23;;;;;;;21.25;9.40;;;;;;;24.85;71.46;100246.53;5044792;28;20033;-88
2023/06/16 07:20:48;;;;;;;24.63;10.40;;;;;;;24.89;72.23;100252.44;5045482;28;20036;-82
2023/06/16 07:23:14;;;;;;;16.98;7.82;;;;;;;24.89;71.25;100247.75;5031145;28;20037;-83
2023/06/16 07:25:39;;;;;;;28.88;13.05;;;;;;;24.94;70.80;100244.34;5020482;28;20441;-84
2023/06/16 07:28:06;;;;;;;27.55;9.65;;;;;;;24.95;71.00;100243.28;5009526;28;20394;-89
2023/06/16 07:30:31;;;;;;;24.73;9.98;;;;;;;25.11;69.89;100234.41;5008513;28;20033;-87
2023/06/16 07:32:57;;;;;;;15.63;9.05;;;;;;;24.99;69.37;100225.22;5019335;28;20029;-88
2023/06/16 07:35:23;;;;;;;18.73;8.57;;;;;;;25.00;69.15;100226.06;5028810;28;20548;-87
2023/06/16 07:37:48;;;;;;;32.38;10.73;;;;;;;24.99;69.54;100219.72;4993990;28;20736;-86
2023/06/16 07:40:14;;;;;;;21.42;10.50;;;;;;;25.16;69.48;100230.97;5021505;28;20171;-87
2023/06/16 07:42:42;;;;;;;28.10;10.73;;;;;;;25.26;68.10;100239.53;5031435;28;20037;-82
2023/06/16 07:45:08;;;;;;;16.45;10.30;;;;;;;25.38;68.38;100243.22;5031223;28;20086;-84
2023/06/16 07:47:33;;;;;;;25.58;10.50;;;;;;;25.42;67.93;100238.91;5031901;28;20070;-83
2023/06/16 07:49:59;;;;;;;21.20;9.82;;;;;;;25.44;67.01;100245.03;5031798;28;20176;-92
2023/06/16 07:52:25;;;;;;;48.63;11.30;;;;;;;25.44;66.19;100245.84;5032168;28;20026;-86
2023/06/16 07:54:51;;;;;;;18.20;8.55;;;;;;;25.13;66.92;100231.44;5032620;28;20033;-89
2023/06/16 07:57:16;;;;;;;34.50;10.75;;;;;;;25.36;67.46;100248.09;5036913;28;20032;-90
2023/06/16 07:59:42;;;;;;;30.95;9.68;;;;;;;25.49;67.69;100236.94;5037691;28;20026;-90
2023/06/16 08:02:07;;;;;;;28.45;10.13;;;;;;;25.47;68.03;100240.97;5016781;28;20519;-86
2023/06/16 08:04:33;;;;;;;33.90;9.93;;;;;;;25.63;67.83;100254.97;5035234;28;20087;-85
2023/06/16 08:06:58;;;;;;;41.65;9.60;;;;;;;25.59;67.07;100234.50;5034947;28;20033;-88
2023/06/16 08:09:24;;;;;;;23.05;9.68;;;;;;;25.59;66.98;100230.91;5018507;28;20036;-86
2023/06/16 08:11:50;;;;;;;23.10;9.10;;;;;;;25.70;65.03;100244.72;5037066;28;20032;-88
2023/06/16 08:14:16;;;;;;;26.60;8.80;;;;;;;25.70;64.63;100239.22;5046734;28;20017;-92
2023/06/16 08:16:42;;;;;;;51.75;11.95;;;;;;;25.71;64.62;100235.41;5015411;28;1177880;-88
2023/06/16 08:19:08;;;;;;;25.02;8.27;;;;;;;25.65;63.67;100227.22;5048132;28;20151;-86
2023/06/16 08:21:34;;;;;;;36.75;10.40;;;;;;;25.70;62.92;100241.97;5034064;28;20694;-86
2023/06/16 08:24:01;;;;;;;19.27;7.97;;;;;;;25.73;62.23;100236.00;5034093;28;20540;-89
2023/06/16 08:26:27;;;;;;;95.75;16.20;;;;;;;25.70;60.31;100233.69;5035330;28;20028;-87
2023/06/16 08:28:53;;;;;;;21.60;7.70;;;;;;;25.76;58.10;100238.28;5018381;28;20573;-87
2023/06/16 08:31:18;;;;;;;19.98;7.93;;;;;;;25.93;58.42;100233.78;5033233;28;20060;-87
2023/06/16 08:33:44;;;;;;;26.80;6.47;;;;;;;25.77;58.01;100223.44;5033390;28;20033;-86
2023/06/16 08:36:10;;;;;;;29.58;7.97;;;;;;;25.79;59.60;100221.28;5033169;28;20030;-86
2023/06/16 08:38:36;;;;;;;17.52;6.38;;;;;;;25.94;57.83;100238.22;5033440;28;20440;-86
2023/06/16 08:41:06;;;;;;;18.42;7.50;;;;;;;25.89;59.09;100226.25;5033376;28;20392;-89
2023/06/16 08:43:36;;;;;;;22.73;7.55;;;;;;;25.73;57.97;100211.19;5033044;28;20025;-87
2023/06/16 08:46:08;;;;;;;17.20;6.90;;;;;;;25.81;57.85;100221.88;5015763;28;20194;-87
2023/06/16 08:48:36;;;;;;;28.58;7.80;;;;;;;25.83;57.07;100227.19;5032545;28;20026;-86
2023/06/16 08:51:03;;;;;;;19.92;8.23;;;;;;;25.91;59.26;100230.44;5033065;28;20152;-86
2023/06/16 08:53:33;;;;;;;24.85;8.10;;;;;;;26.10;59.50;100216.59;4991194;28;20042;-86
2023/06/16 08:56:04;;;;;;;23.65;7.30;;;;;;;26.34;58.60;100218.34;4990689;28;20489;-88
2023/06/16 08:58:35;;;;;;;46.60;7.60;;;;;;;26.43;55.99;100194.84;4972026;28;20066;-88
2023/06/16 09:01:04;;;;;;;22.67;7.47;;;;;;;26.45;55.55;100206.50;4972632;28;20133;-86
2023/06/16 09:03:32;;;;;;;20.75;6.97;;;;;;;26.51;55.62;100216.59;4973403;28;20061;-86
2023/06/16 09:06:01;;;;;;;15.82;6.68;;;;;;;26.46;55.72;100195.22;4975473;28;20035;-86
2023/06/16 09:08:28;;;;;;;17.50;7.70;;;;;;;26.46;54.96;100211.78;4975532;28;20094;-86
2023/06/16 09:10:55;;;;;;;39.40;7.72;;;;;;;26.51;54.42;100213.84;4986100;28;20041;-93
2023/06/16 09:13:22;;;;;;;16.38;7.55;;;;;;;26.58;54.94;100209.00;4996267;28;20258;-87
2023/06/16 09:15:51;;;;;;;17.13;7.68;;;;;;;26.61;55.23;100202.19;4986251;28;20535;-86
2023/06/16 09:18:18;;;;;;;40.20;10.32;;;;;;;26.45;55.94;100198.25;4973250;28;20039;-85
2023/06/16 09:20:51;;;;;;;18.13;6.45;;;;;;;26.29;53.77;100198.94;4974048;28;20517;-86
2023/06/16 09:23:26;;;;;;;14.90;6.28;;;;;;;26.27;53.25;100201.06;4980886;28;20034;-84
2023/06/16 09:25:52;;;;;;;24.52;6.93;;;;;;;26.33;52.41;100219.41;5027243;28;20063;-84
2023/06/16 09:28:18;;;;;;;21.48;7.32;;;;;;;26.36;53.29;100222.53;5013072;28;20025;-85
2023/06/16 09:30:44;;;;;;;17.17;6.00;;;;;;;26.41;53.30;100219.09;5032835;28;20069;-88
2023/06/16 09:33:11;;;;;;;23.15;7.07;;;;;;;26.44;54.98;100221.38;5033274;28;20033;-87
2023/06/16 09:35:40;;;;;;;10.77;6.18;;;;;;;26.35;55.01;100198.81;5032048;28;20535;-88
2023/06/16 09:38:06;;;;;;;31.13;7.85;;;;;;;26.48;54.51;100215.13;5034414;28;20032;-89
2023/06/16 09:40:33;;;;;;;25.27;6.82;;;;;;;26.62;54.82;100212.16;5033433;28;20037;-85
2023/06/16 09:43:06;;;;;;;29.42;7.35;;;;;;;26.58;54.14;100219.22;5034012;28;20029;-86
2023/06/16 09:45:33;;;;;;;35.92;9.00;;;;;;;26.55;53.05;100209.50;5034222;28;20539;-90
2023/06/16 09:48:06;;;;;;;19.77;6.95;;;;;;;26.60;52.59;100201.38;5038487;28;20029;-86
2023/06/16 09:50:32;;;;;;;20.52;7.03;;;;;;;26.80;52.80;100203.78;5043570;28;20034;-84
2023/06/16 09:52:58;;;;;;;13.40;6.10;;;;;;;26.79;54.18;100189.09;5036368;28;20030;-86
2023/06/16 09:55:28;;;;;;;18.60;6.90;;;;;;;26.85;53.02;100199.19;5032142;28;20068;-87
2023/06/16 09:57:54;;;;;;;22.17;7.68;;;;;;;26.87;53.30;100197.06;5032663;28;20312;-87
2023/06/16 10:00:20;;;;;;;10.52;5.47;;;;;;;26.95;50.22;100217.91;5033180;28;20386;-87
2023/06/16 10:02:48;;;;;;;9.40;6.22;;;;;;;26.69;52.80;100202.69;5035598;28;20024;-87
2023/06/16 10:05:16;;;;;;;24.20;7.35;;;;;;;26.65;53.33;100193.19;5036045;28;20173;-87
2023/06/16 10:07:59;;;;;;;14.75;6.85;;;;;;;26.64;54.49;100197.03;5046610;28;20053;-88
2023/06/16 10:10:29;;;;;;;14.88;6.95;;;;;;;26.69;53.64;100210.97;5056144;28;20094;-93
2023/06/16 10:12:56;;;;;;;14.52;6.28;;;;;;;26.85;54.01;100207.47;5041646;28;20091;-87
2023/06/16 10:15:24;;;;;;;19.77;7.13;;;;;;;26.89;54.18;100210.59;5021979;28;20494;-85
2023/06/16 10:17:51;;;;;;;19.20;6.53;;;;;;;26.97;52.88;100205.56;5013764;28;20083;-85
2023/06/16 10:20:19;;;;;;;18.35;6.25;;;;;;;26.97;51.66;100200.03;5012832;28;20026;-87
2023/06/16 10:22:46;;;;;;;21.80;7.65;;;;;;;26.86;51.95;100211.94;5017320;28;20018;-88
2023/06/16 10:25:12;;;;;;;14.80;6.35;;;;;;;26.69;53.29;100185.28;5016280;28;20076;-87
2023/06/16 10:27:40;;;;;;;24.95;7.32;;;;;;;26.74;52.33;100186.22;5020134;28;20474;-86
2023/06/16 10:30:09;;;;;;;13.90;6.32;;;;;;;26.93;51.45;100217.34;5012742;28;20464;-87
2023/06/16 10:32:35;;;;;;;16.27;8.05;;;;;;;26.94;52.63;100219.84;5012162;28;20457;-87
2023/06/16 10:35:01;;;;;;;11.80;5.80;;;;;;;27.01;51.43;100204.00;5012812;28;20652;-87
2023/06/16 10:37:28;;;;;;;15.25;6.82;;;;;;;27.20;50.78;100228.69;5012435;28;20030;-86
2023/06/16 10:40:04;;;;;;;12.32;6.93;;;;;;;26.94;51.14;100219.84;5012009;28;20033;-86
2023/06/16 10:42:33;;;;;;;15.15;6.95;;;;;;;26.76;52.43;100211.66;5011657;28;20058;-87
2023/06/16 10:45:22;;;;;;;17.10;6.50;;;;;;;27.01;53.10;100230.75;5012349;28;20401;-87
2023/06/16 10:48:14;;;;;;;23.45;7.25;;;;;;;26.92;53.68;100244.09;5011835;28;20053;-87
2023/06/16 10:50:40;;;;;;;16.95;7.15;;;;;;;27.08;52.43;100236.16;4953972;28;20450;-86
2023/06/16 10:53:13;;;;;;;15.68;7.47;;;;;;;27.24;54.13;100240.94;4971674;28;20039;-86
2023/06/16 10:55:41;;;;;;;19.58;7.93;;;;;;;27.20;54.41;100237.81;4970850;28;20050;-86
2023/06/16 10:58:29;;;;;;;17.15;7.38;;;;;;;27.17;54.45;100240.22;4973135;28;20027;-86
2023/06/16 11:00:59;;;;;;;21.50;7.25;;;;;;;26.94;55.74;100247.44;4976618;28;20094;-87
2023/06/16 11:03:33;;;;;;;40.90;14.00;;;;;;;27.14;54.90;100240.72;4979372;28;20061;-91
2023/06/16 11:06:00;;;;;;;17.90;8.57;;;;;;;26.95;55.12;100215.16;4994444;28;20018;-87
2023/06/16 11:08:27;;;;;;;19.30;7.57;;;;;;;26.98;55.38;100243.13;4992667;28;20035;-86
2023/06/16 11:10:54;;;;;;;18.83;6.90;;;;;;;26.92;55.48;100255.13;4973538;28;20501;-86
2023/06/16 11:13:25;;;;;;;27.40;8.40;;;;;;;26.94;56.28;100241.91;4973569;28;20031;-86
2023/06/16 11:15:54;;;;;;;22.70;9.07;;;;;;;27.11;56.44;100230.16;4976691;28;20113;-86
2023/06/16 11:18:24;;;;;;;18.25;8.07;;;;;;;27.04;57.10;100246.84;4976190;28;20282;-87